Time;durP1;ratioP1;P1;durP2;ratioP2;P2;SDS_P1;SDS_P2;PMS_P1;PMS_P2;Temp;Humidity;BMP_temperature;BMP_pressure;BME280_temperature;BME280_humidity;BME280_pressure;Samples;Min_cycle;Max_cycle;Signal;HPM_P1;HPM_P2
2023/04/01 00:00:14;;;;;;;1.85;0.60;;;;;;;;;;10371479;28;20410;-77
2023/04/01 00:05:17;;;;;;;1.45;0.60;;;;;;;;;;10371059;28;20045;-78
2023/04/01 00:10:20;;;;;;;1.15;0.28;;;;;;;;;;10378816;28;20124;-78
2023/04/01 00:15:25;;;;;;;0.57;0.13;;;;;;;;;;10369331;28;20084;-77
2023/04/01 00:20:29;;;;;;;1.35;0.30;;;;;;;;;;10369077;28;20056;-80
2023/04/01 00:25:35;;;;;;;0.40;0.35;;;;;;;;;;10377751;28;20097;-78
2023/04/01 00:30:41;;;;;;;0.17;0.17;;;;;;;;;;10385801;28;20136;-80
2023/04/01 00:35:45;;;;;;;2.60;0.22;;;;;;;;;;10376233;28;20073;-79
2023/04/01 00:40:48;;;;;;;2.05;0.45;;;;;;;;;;10379646;28;20638;-79
2023/04/01 00:45:52;;;;;;;0.95;0.55;;;;;;;;;;10368272;28;20057;-79
2023/04/01 00:50:56;;;;;;;0.20;0.15;;;;;;;;;;10371344;28;20037;-79
2023/04/01 00:56:02;;;;;;;1.27;0.30;;;;;;;;;;10374996;28;20038;-80
2023/04/01 01:01:06;;;;;;;0.20;0.13;;;;;;;;;;10375971;28;20164;-78
2023/04/01 01:06:21;;;;;;;0.10;0.10;;;;;;;;;;10378510;28;20041;-78
2023/04/01 01:11:29;;;;;;;0.85;0.22;;;;;;;;;;10378887;28;20065;-78
2023/04/01 01:16:42;;;;;;;0.63;0.30;;;;;;;;;;10372284;28;20042;-78
2023/04/01 01:22:05;;;;;;;1.17;0.40;;;;;;;;;;10379811;28;20038;-78
2023/04/01 01:27:11;;;;;;;0.43;0.20;;;;;;;;;;10372927;28;20038;-77
2023/04/01 01:32:20;;;;;;;0.98;0.28;;;;;;;;;;10371312;28;20068;-78
2023/04/01 01:37:27;;;;;;;1.17;0.38;;;;;;;;;;10362660;28;21108;-78
2023/04/01 01:42:32;;;;;;;4.88;0.40;;;;;;;;;;10377080;28;20128;-78
2023/04/01 01:47:35;;;;;;;1.08;0.30;;;;;;;;;;10379174;28;20387;-77
2023/04/01 01:52:39;;;;;;;0.97;0.30;;;;;;;;;;10386350;28;20049;-79
2023/04/01 01:57:43;;;;;;;0.90;0.32;;;;;;;;;;10380515;28;20088;-79
2023/04/01 02:02:47;;;;;;;1.17;0.40;;;;;;;;;;10376967;28;20142;-80
2023/04/01 02:07:55;;;;;;;0.77;0.45;;;;;;;;;;10385014;28;20125;-79
2023/04/01 02:13:00;;;;;;;0.40;0.20;;;;;;;;;;10376728;28;20403;-78
2023/04/01 02:18:16;;;;;;;4.00;0.22;;;;;;;;;;10373930;28;20037;-78
2023/04/01 02:23:20;;;;;;;2.30;0.40;;;;;;;;;;10367393;28;20040;-80
2023/04/01 02:28:24;;;;;;;0.00;0.00;;;;;;;;;;10372109;28;20037;-79
2023/04/01 02:33:28;;;;;;;0.98;0.25;;;;;;;;;;10377901;28;20044;-79
2023/04/01 02:38:30;;;;;;;;;;;;;;;;;;10370549;28;20046;-78
2023/04/01 02:43:35;;;;;;;1.65;0.28;;;;;;;;;;10372030;28;20267;-78
2023/04/01 02:48:38;;;;;;;0.08;0.08;;;;;;;;;;10376081;28;20121;-79
2023/04/01 02:53:41;;;;;;;0.22;0.13;;;;;;;;;;10378108;28;20042;-78
2023/04/01 02:58:45;;;;;;;0.70;0.10;;;;;;;;;;10369441;28;20481;-78
2023/04/01 03:03:47;;;;;;;0.10;0.10;;;;;;;;;;10377125;28;20046;-79
2023/04/01 03:08:50;;;;;;;1.30;0.30;;;;;;;;;;10355229;28;20030;-78
2023/04/01 03:13:56;;;;;;;0.40;0.20;;;;;;;;;;10368358;28;20046;-78
2023/04/01 03:19:01;;;;;;;0.80;0.10;;;;;;;;;;10361478;28;20052;-78
2023/04/01 03:24:06;;;;;;;0.55;0.20;;;;;;;;;;10368469;28;20484;-79
2023/04/01 03:29:10;;;;;;;1.27;0.20;;;;;;;;;;10366247;28;20038;-79
2023/04/01 03:34:12;;;;;;;0.60;0.20;;;;;;;;;;10365008;28;20124;-82
2023/04/01 03:39:18;;;;;;;0.10;0.10;;;;;;;;;;10370373;28;20740;-78
2023/04/01 03:44:22;;;;;;;0.38;0.08;;;;;;;;;;10373445;28;20678;-79
2023/04/01 03:49:25;;;;;;;0.17;0.10;;;;;;;;;;10375684;28;20490;-78
2023/04/01 03:54:38;;;;;;;0.70;0.03;;;;;;;;;;10368311;28;20048;-78
2023/04/01 03:59:41;;;;;;;0.10;0.10;;;;;;;;;;10371755;28;20046;-79
2023/04/01 04:04:46;;;;;;;0.60;0.13;;;;;;;;;;10374292;28;20471;-80
2023/04/01 04:09:49;;;;;;;0.05;0.00;;;;;;;;;;10371918;28;20040;-79
2023/04/01 04:14:53;;;;;;;0.13;0.13;;;;;;;;;;10374073;28;20042;-78
2023/04/01 04:19:57;;;;;;;1.30;0.40;;;;;;;;;;10373083;28;20065;-80
2023/04/01 04:25:00;;;;;;;0.38;0.20;;;;;;;;;;10377533;28;20376;-79
2023/04/01 04:30:06;;;;;;;0.82;0.30;;;;;;;;;;10375653;28;20041;-78
2023/04/01 04:35:09;;;;;;;0.15;0.15;;;;;;;;;;10373894;28;20056;-77
2023/04/01 04:40:13;;;;;;;0.98;0.20;;;;;;;;;;10378062;28;20068;-78
2023/04/01 04:45:17;;;;;;;7.47;0.90;;;;;;;;;;10374430;28;20132;-78
2023/04/01 04:50:20;;;;;;;0.65;0.22;;;;;;;;;;10372315;28;20041;-79
2023/04/01 04:55:24;;;;;;;0.20;0.20;;;;;;;;;;10380744;28;20498;-79
2023/04/01 05:00:28;;;;;;;0.22;0.20;;;;;;;;;;10361148;28;20038;-78
2023/04/01 05:05:31;;;;;;;0.20;0.20;;;;;;;;;;10375851;28;20044;-78
2023/04/01 05:10:35;;;;;;;1.80;0.20;;;;;;;;;;10366660;28;20045;-77
2023/04/01 05:15:42;;;;;;;0.93;0.38;;;;;;;;;;10378077;28;20038;-79
2023/04/01 05:20:48;;;;;;;0.32;0.22;;;;;;;;;;10381539;28;20041;-81
2023/04/01 05:25:52;;;;;;;0.68;0.28;;;;;;;;;;10364064;28;20270;-80
2023/04/01 05:30:59;;;;;;;0.15;0.15;;;;;;;;;;10376622;28;20096;-79
2023/04/01 05:36:09;;;;;;;1.58;0.30;;;;;;;;;;10376231;28;20046;-79
2023/04/01 05:41:16;;;;;;;1.60;0.30;;;;;;;;;;10379124;28;20124;-78
2023/04/01 05:46:20;;;;;;;1.95;0.55;;;;;;;;;;10363343;28;20116;-78
2023/04/01 05:51:24;;;;;;;1.90;0.20;;;;;;;;;;10376205;28;20045;-79
2023/04/01 05:56:26;;;;;;;3.00;0.30;;;;;;;;;;10376419;28;20580;-77
2023/04/01 06:01:30;;;;;;;0.75;0.32;;;;;;;;;;10381593;28;20100;-78
2023/04/01 06:06:39;;;;;;;1.15;0.47;;;;;;;;;;10369699;28;20046;-78
2023/04/01 06:11:47;;;;;;;1.50;0.38;;;;;;;;;;10375892;28;20049;-81
2023/04/01 06:16:55;;;;;;;1.77;0.20;;;;;;;;;;10380880;28;20033;-78
2023/04/01 06:22:02;;;;;;;1.42;0.43;;;;;;;;;;10355008;28;20038;-78
2023/04/01 06:27:07;;;;;;;1.33;0.30;;;;;;;;;;10372592;28;20148;-80
2023/04/01 06:32:21;;;;;;;1.20;0.50;;;;;;;;;;10377878;28;20049;-77
2023/04/01 06:37:24;;;;;;;;;;;;;;;;;;10351130;28;20065;-79
2023/04/01 06:42:32;;;;;;;1.90;0.40;;;;;;;;;;10372485;28;20004;-79
2023/04/01 06:47:42;;;;;;;2.15;0.55;;;;;;;;;;10376370;28;20029;-80
2023/04/01 06:52:51;;;;;;;0.75;0.30;;;;;;;;;;10375688;28;20138;-78
2023/04/01 06:57:56;;;;;;;0.77;0.52;;;;;;;;;;10376740;28;20049;-78
2023/04/01 07:03:06;;;;;;;0.25;0.25;;;;;;;;;;10374011;28;20072;-79
2023/04/01 07:08:11;;;;;;;0.85;0.43;;;;;;;;;;10376083;28;20586;-80
2023/04/01 07:13:16;;;;;;;1.38;0.60;;;;;;;;;;10380260;28;20137;-79
2023/04/01 07:18:24;;;;;;;0.88;0.35;;;;;;;;;;10380281;28;20046;-80
2023/04/01 07:23:29;;;;;;;3.30;0.60;;;;;;;;;;10374836;28;20057;-81
2023/04/01 07:28:33;;;;;;;1.45;0.55;;;;;;;;;;10376984;28;20115;-80
2023/04/01 07:33:39;;;;;;;0.45;0.30;;;;;;;;;;10379414;28;20041;-80
2023/04/01 07:38:47;;;;;;;1.17;0.90;;;;;;;;;;10371595;28;20091;-79
2023/04/01 07:43:57;;;;;;;0.43;0.30;;;;;;;;;;10375614;28;20060;-79
2023/04/01 07:49:04;;;;;;;1.65;0.50;;;;;;;;;;10404165;28;20041;-80
2023/04/01 07:54:12;;;;;;;0.65;0.20;;;;;;;;;;10411984;28;20122;-80
2023/04/01 07:59:18;;;;;;;3.20;0.47;;;;;;;;;;10416084;28;20353;-80
2023/04/01 08:04:41;;;;;;;2.40;0.38;;;;;;;;;;10410455;28;20053;-82
2023/04/01 08:09:49;;;;;;;0.20;0.17;;;;;;;;;;10407616;28;20045;-81
2023/04/01 08:14:56;;;;;;;0.20;0.20;;;;;;;;;;10413074;28;20397;-81
2023/04/01 08:20:09;;;;;;;1.27;0.47;;;;;;;;;;10409184;28;20459;-79
2023/04/01 08:25:17;;;;;;;0.30;0.30;;;;;;;;;;10412500;28;20041;-80
2023/04/01 08:30:20;;;;;;;0.63;0.30;;;;;;;;;;10414171;28;20037;-80
2023/04/01 08:35:27;;;;;;;0.43;0.30;;;;;;;;;;10418768;28;20083;-81
2023/04/01 08:40:51;;;;;;;2.72;0.40;;;;;;;;;;10416470;28;20041;-79
2023/04/01 08:46:02;;;;;;;1.02;0.40;;;;;;;;;;10426457;28;20051;-82
2023/04/01 08:51:14;;;;;;;0.45;0.40;;;;;;;;;;10404862;28;20552;-80
2023/04/01 08:56:19;;;;;;;0.70;0.30;;;;;;;;;;10420065;28;20198;-79
2023/04/01 09:01:27;;;;;;;0.73;0.73;;;;;;;;;;10415296;28;22004;-81
2023/04/01 09:06:36;;;;;;;0.30;0.30;;;;;;;;;;10414701;28;20132;-80
2023/04/01 09:12:02;;;;;;;0.10;0.10;;;;;;;;;;10413753;28;20107;-79
2023/04/01 09:17:27;;;;;;;0.38;0.38;;;;;;;;;;10418316;28;20037;-80
2023/04/01 09:22:37;;;;;;;0.65;0.30;;;;;;;;;;10420728;28;20395;-80
2023/04/01 09:27:44;;;;;;;0.47;0.20;;;;;;;;;;10422720;28;20391;-81
2023/04/01 09:32:55;;;;;;;0.20;0.20;;;;;;;;;;10415062;28;20038;-80
2023/04/01 09:38:05;;;;;;;0.43;0.30;;;;;;;;;;10422306;28;20395;-80
2023/04/01 09:43:23;;;;;;;0.45;0.45;;;;;;;;;;10417021;28;20045;-81
2023/04/01 09:48:41;;;;;;;0.70;0.70;;;;;;;;;;10407053;28;20073;-80
2023/04/01 09:54:01;;;;;;;0.30;0.30;;;;;;;;;;10419095;28;20144;-79
2023/04/01 09:59:14;;;;;;;0.20;0.20;;;;;;;;;;10427185;28;20037;-80
2023/04/01 10:04:40;;;;;;;0.10;0.10;;;;;;;;;;10422891;28;20061;-81
2023/04/01 10:09:58;;;;;;;0.32;0.30;;;;;;;;;;10400506;28;20148;-81
2023/04/01 10:15:19;;;;;;;0.20;0.20;;;;;;;;;;10418429;28;20053;-81
2023/04/01 10:20:43;;;;;;;0.30;0.30;;;;;;;;;;10413803;28;20041;-80
2023/04/01 10:26:07;;;;;;;0.30;0.30;;;;;;;;;;10408806;28;20558;-80
2023/04/01 10:31:40;;;;;;;0.50;0.30;;;;;;;;;;10404487;28;20045;-81
2023/04/01 10:36:53;;;;;;;0.43;0.15;;;;;;;;;;10409919;28;20040;-81
2023/04/01 10:42:10;;;;;;;0.13;0.10;;;;;;;;;;10411941;28;20419;-81
2023/04/01 10:47:28;;;;;;;0.63;0.38;;;;;;;;;;10396096;28;20076;-80
2023/04/01 10:52:44;;;;;;;0.73;0.30;;;;;;;;;;10417689;28;20136;-81
2023/04/01 10:58:00;;;;;;;0.30;0.20;;;;;;;;;;10411585;28;20041;-80
2023/04/01 11:03:23;;;;;;;0.30;0.30;;;;;;;;;;10418161;28;20033;-81
2023/04/01 11:09:10;;;;;;;1.10;0.30;;;;;;;;;;10417157;28;20084;-82
2023/04/01 11:14:40;;;;;;;0.30;0.30;;;;;;;;;;10410352;28;20042;-81
2023/04/01 11:19:56;;;;;;;0.20;0.20;;;;;;;;;;10414065;28;20076;-81
2023/04/01 11:25:06;;;;;;;0.70;0.30;;;;;;;;;;10414728;28;20057;-84
2023/04/01 11:30:16;;;;;;;0.30;0.30;;;;;;;;;;10412308;28;20127;-81
2023/04/01 11:35:49;;;;;;;0.30;0.30;;;;;;;;;;10413111;28;20053;-79
2023/04/01 11:40:57;;;;;;;0.20;0.20;;;;;;;;;;10412744;28;20424;-78
2023/04/01 11:46:04;;;;;;;0.47;0.20;;;;;;;;;;10409818;28;20095;-78
2023/04/01 11:51:16;;;;;;;0.30;0.30;;;;;;;;;;10410501;28;20128;-78
2023/04/01 11:56:25;;;;;;;0.32;0.30;;;;;;;;;;10408155;28;20156;-79
2023/04/01 12:01:33;;;;;;;0.50;0.20;;;;;;;;;;10414648;28;20091;-78
2023/04/01 12:06:40;;;;;;;0.28;0.25;;;;;;;;;;10421337;28;20041;-79
2023/04/01 12:11:49;;;;;;;0.45;0.28;;;;;;;;;;10399028;28;20041;-78
2023/04/01 12:17:00;;;;;;;0.17;0.17;;;;;;;;;;10419864;28;20063;-78
2023/04/01 12:22:18;;;;;;;0.10;0.10;;;;;;;;;;10421580;28;20060;-79
2023/04/01 12:27:30;;;;;;;0.22;0.20;;;;;;;;;;10422025;28;20048;-80
2023/04/01 12:32:38;;;;;;;0.52;0.20;;;;;;;;;;10427623;28;20145;-79
2023/04/01 12:37:47;;;;;;;0.00;0.00;;;;;;;;;;10426367;28;20035;-78
2023/04/01 12:42:56;;;;;;;0.10;0.10;;;;;;;;;;10416788;28;20049;-79
2023/04/01 12:48:07;;;;;;;0.30;0.30;;;;;;;;;;10416095;28;20510;-80
2023/04/01 12:53:26;;;;;;;0.35;0.30;;;;;;;;;;10418106;28;20132;-80
2023/04/01 12:58:40;;;;;;;0.65;0.40;;;;;;;;;;10411501;28;20110;-80
2023/04/01 13:03:54;;;;;;;0.52;0.40;;;;;;;;;;10416560;28;20037;-80
2023/04/01 13:09:07;;;;;;;0.20;0.20;;;;;;;;;;10422537;28;20116;-81
2023/04/01 13:14:29;;;;;;;1.17;0.98;;;;;;;;;;10415640;28;20117;-81
2023/04/01 13:19:37;;;;;;;2.15;0.28;;;;;;;;;;10411275;28;20043;-81
2023/04/01 13:24:53;;;;;;;0.38;0.25;;;;;;;;;;10412698;28;20080;-80
2023/04/01 13:30:03;;;;;;;0.43;0.32;;;;;;;;;;10416284;28;20033;-80
2023/04/01 13:35:27;;;;;;;0.10;0.10;;;;;;;;;;10416677;28;20049;-78
2023/04/01 13:40:40;;;;;;;0.45;0.35;;;;;;;;;;10410529;28;20095;-81
2023/04/01 13:46:13;;;;;;;0.30;0.30;;;;;;;;;;10417810;28;20128;-79
2023/04/01 13:51:41;;;;;;;0.57;0.32;;;;;;;;;;10412900;28;20041;-80
2023/04/01 13:56:49;;;;;;;0.30;0.17;;;;;;;;;;10410146;28;20095;-79
2023/04/01 14:01:59;;;;;;;0.82;0.35;;;;;;;;;;10415426;28;20108;-79
2023/04/01 14:07:17;;;;;;;1.15;0.52;;;;;;;;;;10414037;28;20520;-80
2023/04/01 14:12:28;;;;;;;0.93;0.35;;;;;;;;;;10397331;28;20121;-79
2023/04/01 14:17:47;;;;;;;0.73;0.40;;;;;;;;;;10416485;28;20064;-81
2023/04/01 14:23:00;;;;;;;2.13;0.40;;;;;;;;;;10415836;28;20410;-79
2023/04/01 14:28:16;;;;;;;0.52;0.25;;;;;;;;;;10401144;28;20071;-79
2023/04/01 14:33:33;;;;;;;0.40;0.30;;;;;;;;;;10416649;28;20107;-80
2023/04/01 14:38:54;;;;;;;0.75;0.20;;;;;;;;;;10408229;28;20038;-80
2023/04/01 14:44:11;;;;;;;0.20;0.20;;;;;;;;;;10416622;28;20048;-80
2023/04/01 14:49:18;;;;;;;0.25;0.25;;;;;;;;;;10414809;28;20034;-79
2023/04/01 14:54:30;;;;;;;2.63;0.22;;;;;;;;;;10412648;28;20065;-81
2023/04/01 14:59:40;;;;;;;0.30;0.30;;;;;;;;;;10409171;28;20049;-81
2023/04/01 15:04:47;;;;;;;0.88;0.32;;;;;;;;;;10419188;28;20088;-80
2023/04/01 15:09:55;;;;;;;0.80;0.25;;;;;;;;;;10416260;28;20029;-79
2023/04/01 15:15:10;;;;;;;1.85;0.50;;;;;;;;;;10399001;28;20144;-81
2023/04/01 15:20:34;;;;;;;1.95;0.30;;;;;;;;;;10410069;28;20041;-81
2023/04/01 15:25:44;;;;;;;0.65;0.40;;;;;;;;;;10417573;28;20042;-80
2023/04/01 15:30:52;;;;;;;0.63;0.30;;;;;;;;;;10415412;28;20128;-80
2023/04/01 15:36:01;;;;;;;0.20;0.20;;;;;;;;;;10413341;28;20127;-80
2023/04/01 15:41:10;;;;;;;0.60;0.60;;;;;;;;;;10417381;28;20045;-80
2023/04/01 15:46:27;;;;;;;0.20;0.20;;;;;;;;;;10417140;28;20497;-81
2023/04/01 15:51:45;;;;;;;1.75;0.50;;;;;;;;;;10412680;28;20525;-80
2023/04/01 15:56:53;;;;;;;1.75;0.35;;;;;;;;;;10417810;28;20102;-82
2023/04/01 16:02:00;;;;;;;0.20;0.20;;;;;;;;;;10408519;28;20093;-80
2023/04/01 16:07:20;;;;;;;1.10;0.40;;;;;;;;;;10411806;28;20033;-80
2023/04/01 16:12:35;;;;;;;0.93;0.22;;;;;;;;;;10391131;28;20403;-79
2023/04/01 16:17:55;;;;;;;0.73;0.60;;;;;;;;;;10414196;28;20045;-81
2023/04/01 16:23:00;;;;;;;0.20;0.13;;;;;;;;;;10406274;28;20044;-81
2023/04/01 16:28:10;;;;;;;1.17;0.20;;;;;;;;;;10410169;28;20067;-82
2023/04/01 16:33:21;;;;;;;1.58;0.57;;;;;;;;;;10403132;28;20072;-80
2023/04/01 16:44:48;;;;;;;1.60;0.40;;;;;;;;;;10418602;28;20124;-80
2023/04/01 16:55:52;;;;;;;0.10;0.10;;;;;;;;;;10400395;28;20055;-80
2023/04/01 17:01:01;;;;;;;1.52;0.38;;;;;;;;;;10410523;28;20544;-80
2023/04/01 17:06:08;;;;;;;2.45;0.20;;;;;;;;;;10397701;28;20036;-80
2023/04/01 17:11:18;;;;;;;0.60;0.45;;;;;;;;;;10408724;28;20068;-80
2023/04/01 17:16:27;;;;;;;0.70;0.28;;;;;;;;;;10415504;28;20041;-79
2023/04/01 17:21:35;;;;;;;0.35;0.30;;;;;;;;;;10418617;28;20100;-80
2023/04/01 17:26:43;;;;;;;1.40;0.30;;;;;;;;;;10416410;28;20053;-79
2023/04/01 17:31:48;;;;;;;1.95;0.60;;;;;;;;;;10413649;28;20037;-78
2023/04/01 17:36:59;;;;;;;1.20;0.68;;;;;;;;;;10412742;28;20127;-78
2023/04/01 17:42:08;;;;;;;0.40;0.38;;;;;;;;;;10423613;28;20116;-78
2023/04/01 17:47:27;;;;;;;2.42;0.57;;;;;;;;;;10399369;28;20047;-78
2023/04/01 17:52:32;;;;;;;0.80;0.65;;;;;;;;;;10420293;28;20101;-78
2023/04/01 17:57:47;;;;;;;0.20;0.15;;;;;;;;;;10417405;28;20075;-78
2023/04/01 18:02:55;;;;;;;1.25;0.28;;;;;;;;;;10424583;28;20042;-80
2023/04/01 18:08:05;;;;;;;1.35;0.50;;;;;;;;;;10419625;28;20037;-80
2023/04/01 18:13:30;;;;;;;0.40;0.35;;;;;;;;;;10413679;28;20034;-80
2023/04/01 18:18:47;;;;;;;1.48;0.40;;;;;;;;;;10413081;28;20053;-81
2023/04/01 18:23:52;;;;;;;0.90;0.50;;;;;;;;;;10420452;28;20716;-82
2023/04/01 18:29:14;;;;;;;1.40;0.57;;;;;;;;;;10416634;28;20293;-81
2023/04/01 18:34:19;;;;;;;1.20;0.63;;;;;;;;;;10419734;28;20132;-82
2023/04/01 18:39:25;;;;;;;0.77;0.30;;;;;;;;;;10415471;28;20048;-81
2023/04/01 18:44:35;;;;;;;1.13;0.45;;;;;;;;;;10423075;28;20076;-81
2023/04/01 18:49:42;;;;;;;0.47;0.45;;;;;;;;;;10420214;28;20047;-81
2023/04/01 18:54:49;;;;;;;0.40;0.30;;;;;;;;;;10425324;28;20045;-81
2023/04/01 18:59:56;;;;;;;0.32;0.20;;;;;;;;;;10412777;28;20037;-82
2023/04/01 19:05:03;;;;;;;0.55;0.30;;;;;;;;;;10418917;28;20124;-82
2023/04/01 19:10:14;;;;;;;0.63;0.32;;;;;;;;;;10418561;28;20072;-82
2023/04/01 19:15:27;;;;;;;0.75;0.45;;;;;;;;;;10423563;28;20080;-82
2023/04/01 19:20:42;;;;;;;0.35;0.35;;;;;;;;;;10411345;28;20033;-80
2023/04/01 19:25:50;;;;;;;0.85;0.50;;;;;;;;;;10412475;28;20041;-82
2023/04/01 19:31:09;;;;;;;0.77;0.35;;;;;;;;;;10419909;28;20060;-81
2023/04/01 19:36:17;;;;;;;0.77;0.50;;;;;;;;;;10414956;28;20045;-82
2023/04/01 19:41:31;;;;;;;0.45;0.20;;;;;;;;;;10409853;28;20037;-81
2023/04/01 19:46:37;;;;;;;0.85;0.60;;;;;;;;;;10411298;28;20152;-81
2023/04/01 19:51:44;;;;;;;0.90;0.57;;;;;;;;;;10416705;28;20041;-82
2023/04/01 19:56:50;;;;;;;1.65;0.80;;;;;;;;;;10417674;28;20462;-81
2023/04/01 20:01:58;;;;;;;0.60;0.40;;;;;;;;;;10416740;28;20045;-81
2023/04/01 20:07:05;;;;;;;0.43;0.30;;;;;;;;;;10413419;28;20037;-80
2023/04/01 20:12:12;;;;;;;0.68;0.50;;;;;;;;;;10413823;28;20045;-80
2023/04/01 20:17:19;;;;;;;0.93;0.63;;;;;;;;;;10413464;28;20056;-81
2023/04/01 20:22:30;;;;;;;1.00;0.45;;;;;;;;;;10425175;28;20033;-81
2023/04/01 20:27:36;;;;;;;0.20;0.10;;;;;;;;;;10429367;28;20041;-81
2023/04/01 20:32:46;;;;;;;0.30;0.30;;;;;;;;;;10427604;28;20100;-82
2023/04/01 20:37:52;;;;;;;0.30;0.30;;;;;;;;;;10433116;28;20069;-80
2023/04/01 20:43:03;;;;;;;0.57;0.40;;;;;;;;;;10432485;28;20056;-81
2023/04/01 20:48:18;;;;;;;0.45;0.28;;;;;;;;;;10424672;28;20041;-82
2023/04/01 20:53:21;;;;;;;1.02;0.63;;;;;;;;;;10413288;28;20037;-81
2023/04/01 20:58:29;;;;;;;1.17;0.40;;;;;;;;;;10421766;28;20071;-81
2023/04/01 21:03:39;;;;;;;2.88;0.43;;;;;;;;;;10404358;28;20138;-81
2023/04/01 21:08:58;;;;;;;2.63;0.55;;;;;;;;;;10421193;28;20068;-81
2023/04/01 21:14:08;;;;;;;0.73;0.30;;;;;;;;;;10421326;28;20048;-78
2023/04/01 21:19:22;;;;;;;0.95;0.57;;;;;;;;;;10403617;28;20053;-80
2023/04/01 21:24:39;;;;;;;0.30;0.30;;;;;;;;;;10419355;28;20141;-79
2023/04/01 21:29:54;;;;;;;0.45;0.30;;;;;;;;;;10412600;28;20060;-82
2023/04/01 21:35:02;;;;;;;1.10;0.47;;;;;;;;;;10429859;28;20480;-80
2023/04/01 21:40:29;;;;;;;1.20;0.55;;;;;;;;;;10416473;28;20045;-79
2023/04/01 21:45:40;;;;;;;0.93;0.30;;;;;;;;;;10422975;28;20049;-83
2023/04/01 21:50:48;;;;;;;1.20;0.68;;;;;;;;;;10401542;28;20037;-80
2023/04/01 21:56:13;;;;;;;1.73;0.50;;;;;;;;;;10424073;28;20049;-80
2023/04/01 22:01:32;;;;;;;1.05;0.50;;;;;;;;;;10384819;28;20049;-81
2023/04/01 22:06:39;;;;;;;0.98;0.40;;;;;;;;;;10416675;28;20041;-80
2023/04/01 22:11:49;;;;;;;0.45;0.38;;;;;;;;;;10402427;28;20045;-80
2023/04/01 22:16:57;;;;;;;0.22;0.22;;;;;;;;;;10418857;28;20041;-79
2023/04/01 22:22:08;;;;;;;0.30;0.30;;;;;;;;;;10412460;28;20394;-81
2023/04/01 22:27:18;;;;;;;1.05;0.40;;;;;;;;;;10417578;28;20064;-82
2023/04/01 22:32:24;;;;;;;0.52;0.40;;;;;;;;;;10414795;28;20518;-80
2023/04/01 22:37:33;;;;;;;0.35;0.35;;;;;;;;;;10419561;28;20048;-81
2023/04/01 22:42:44;;;;;;;1.77;0.32;;;;;;;;;;10413841;28;20049;-80
2023/04/01 22:47:51;;;;;;;0.40;0.25;;;;;;;;;;10416950;28;20040;-79
2023/04/01 22:53:00;;;;;;;0.22;0.22;;;;;;;;;;10420493;28;20033;-81
2023/04/01 22:58:04;;;;;;;0.32;0.32;;;;;;;;;;10415334;28;20347;-81
2023/04/01 23:03:11;;;;;;;0.38;0.30;;;;;;;;;;10419770;28;20371;-80
2023/04/01 23:08:38;;;;;;;0.60;0.40;;;;;;;;;;10412003;28;20044;-82
2023/04/01 23:13:43;;;;;;;0.70;0.47;;;;;;;;;;10411904;28;20029;-80
2023/04/01 23:18:51;;;;;;;0.90;0.50;;;;;;;;;;10413253;28;20065;-81
2023/04/01 23:24:01;;;;;;;5.25;0.40;;;;;;;;;;10415688;28;20037;-81
2023/04/01 23:29:05;;;;;;;0.40;0.30;;;;;;;;;;10409496;28;20533;-80
2023/04/01 23:34:32;;;;;;;0.57;0.30;;;;;;;;;;10412008;28;20114;-81
2023/04/01 23:39:38;;;;;;;0.47;0.30;;;;;;;;;;10416203;28;20041;-81
2023/04/01 23:44:41;;;;;;;1.02;0.25;;;;;;;;;;10409605;28;20025;-79
2023/04/01 23:49:47;;;;;;;0.68;0.65;;;;;;;;;;10411378;28;20132;-82
2023/04/01 23:54:55;;;;;;;1.00;0.50;;;;;;;;;;10412429;28;20503;-81
